Time;durP1;ratioP1;P1;durP2;ratioP2;P2;SDS_P1;SDS_P2;PMS_P1;PMS_P2;Temp;Humidity;BMP_temperature;BMP_pressure;BME280_temperature;BME280_humidity;BME280_pressure;Samples;Min_cycle;Max_cycle;Signal;HPM_P1;HPM_P2
2023/09/26 00:00:09;;;;;;;2.47;2.30;;;;;;;;;;5103126;28;20220;-41
2023/09/26 00:02:36;;;;;;;3.70;2.30;;;;;;;;;;5108908;27;20205;-45
2023/09/26 00:05:08;;;;;;;2.37;2.17;;;;;;;;;;5101354;28;20261;-45
2023/09/26 00:07:36;;;;;;;2.43;2.23;;;;;;;;;;5108928;28;20235;-40
2023/09/26 00:10:04;;;;;;;2.90;2.50;;;;;;;;;;5094639;28;20225;-43
2023/09/26 00:12:31;;;;;;;2.97;2.43;;;;;;;;;;5107022;28;20208;-40
2023/09/26 00:14:58;;;;;;;2.97;2.20;;;;;;;;;;5093520;28;20211;-42
2023/09/26 00:17:25;;;;;;;2.20;2.00;;;;;;;;;;5098071;28;20206;-45
2023/09/26 00:19:52;;;;;;;2.87;2.67;;;;;;;;;;5100098;28;20228;-45
2023/09/26 00:22:21;;;;;;;2.50;2.30;;;;;;;;;;5101148;28;20208;-43
2023/09/26 00:24:48;;;;;;;4.87;2.60;;;;;;;;;;5108546;28;20208;-42
2023/09/26 00:27:17;;;;;;;1.90;1.80;;;;;;;;;;5086486;28;20219;-42
2023/09/26 00:29:45;;;;;;;9.33;2.50;;;;;;;;;;5100535;28;20247;-40
2023/09/26 00:32:12;;;;;;;4.10;2.13;;;;;;;;;;5109239;28;20213;-41
2023/09/26 00:34:39;;;;;;;1.90;1.80;;;;;;;;;;5091871;27;20222;-42
2023/09/26 00:37:06;;;;;;;2.67;2.23;;;;;;;;;;5106689;27;20208;-46
2023/09/26 00:39:37;;;;;;;2.43;2.23;;;;;;;;;;5101138;28;20226;-41
2023/09/26 00:42:04;;;;;;;2.73;2.13;;;;;;;;;;5091277;28;20212;-38
2023/09/26 00:44:31;;;;;;;1.93;1.73;;;;;;;;;;5107471;28;20207;-41
2023/09/26 00:47:02;;;;;;;1.87;1.73;;;;;;;;;;5109868;28;20630;-43
2023/09/26 00:49:31;;;;;;;2.50;2.30;;;;;;;;;;5108803;28;20282;-41
2023/09/26 00:51:59;;;;;;;2.60;2.13;;;;;;;;;;5092809;28;20230;-45
2023/09/26 00:54:26;;;;;;;2.47;2.17;;;;;;;;;;5109470;28;20204;-41
2023/09/26 00:56:55;;;;;;;2.67;2.43;;;;;;;;;;5093278;28;20210;-42
2023/09/26 00:59:23;;;;;;;2.87;2.23;;;;;;;;;;5106426;27;20216;-41
2023/09/26 01:01:51;;;;;;;2.80;2.43;;;;;;;;;;5098282;28;20217;-40
2023/09/26 01:04:19;;;;;;;2.60;2.33;;;;;;;;;;5101672;28;20203;-40
2023/09/26 01:06:46;;;;;;;3.20;3.00;;;;;;;;;;5092350;28;20204;-43
2023/09/26 01:09:14;;;;;;;4.07;2.00;;;;;;;;;;5108089;28;20229;-44
2023/09/26 01:11:41;;;;;;;3.60;2.13;;;;;;;;;;5102713;28;20204;-44
2023/09/26 01:14:09;;;;;;;3.10;2.23;;;;;;;;;;5103902;28;20269;-42
2023/09/26 01:16:38;;;;;;;2.57;2.37;;;;;;;;;;5098175;28;20206;-41
2023/09/26 01:19:05;;;;;;;2.73;2.53;;;;;;;;;;5096007;28;20230;-39
2023/09/26 01:21:33;;;;;;;2.50;2.30;;;;;;;;;;5101195;28;20254;-41
2023/09/26 01:24:02;;;;;;;3.97;2.77;;;;;;;;;;5109017;28;20210;-44
2023/09/26 01:26:36;;;;;;;3.10;2.80;;;;;;;;;;5087040;28;20208;-41
2023/09/26 01:29:03;;;;;;;2.43;2.27;;;;;;;;;;5094193;28;20227;-38
2023/09/26 01:31:31;;;;;;;2.77;2.57;;;;;;;;;;5108353;28;20219;-41
2023/09/26 01:33:58;;;;;;;2.30;2.10;;;;;;;;;;5108939;28;20282;-44
2023/09/26 01:36:26;;;;;;;2.70;1.93;;;;;;;;;;5105423;27;20212;-39
2023/09/26 01:38:54;;;;;;;2.10;1.90;;;;;;;;;;5100379;28;20211;-45
2023/09/26 01:41:23;;;;;;;2.40;1.97;;;;;;;;;;5106343;28;20204;-43
2023/09/26 01:43:50;;;;;;;2.40;2.30;;;;;;;;;;5102664;28;20204;-44
2023/09/26 01:46:19;;;;;;;2.53;2.33;;;;;;;;;;5100565;28;20216;-38
2023/09/26 01:48:46;;;;;;;2.67;2.47;;;;;;;;;;5106150;28;20596;-43
2023/09/26 01:51:13;;;;;;;3.27;2.97;;;;;;;;;;5093678;28;20223;-39
2023/09/26 01:53:40;;;;;;;2.73;2.53;;;;;;;;;;5099480;28;20200;-43
2023/09/26 01:56:08;;;;;;;2.77;2.57;;;;;;;;;;5096663;28;20204;-44
2023/09/26 01:58:36;;;;;;;2.83;2.57;;;;;;;;;;5100463;28;20208;-42
2023/09/26 02:01:03;;;;;;;3.00;2.73;;;;;;;;;;5099733;28;20224;-44
2023/09/26 02:03:30;;;;;;;3.73;2.53;;;;;;;;;;5099291;28;20205;-39
2023/09/26 02:05:59;;;;;;;2.40;2.20;;;;;;;;;;5099864;28;20210;-42
2023/09/26 02:08:26;;;;;;;3.97;2.23;;;;;;;;;;5091984;28;20236;-41
2023/09/26 02:10:53;;;;;;;3.10;2.23;;;;;;;;;;5087552;28;20380;-43
2023/09/26 02:13:20;;;;;;;3.57;2.30;;;;;;;;;;5089203;28;20222;-44
2023/09/26 02:15:49;;;;;;;3.00;2.50;;;;;;;;;;5106564;28;20213;-42
2023/09/26 02:18:16;;;;;;;2.23;2.03;;;;;;;;;;5103364;28;20212;-43
2023/09/26 02:20:43;;;;;;;3.80;3.37;;;;;;;;;;5102987;28;20231;-35
2023/09/26 02:23:11;;;;;;;2.47;2.27;;;;;;;;;;5102914;28;20232;-43
2023/09/26 02:25:38;;;;;;;3.07;2.83;;;;;;;;;;5089750;28;20218;-40
2023/09/26 02:28:05;;;;;;;3.63;3.10;;;;;;;;;;5099861;28;20223;-41
2023/09/26 02:30:32;;;;;;;2.97;2.73;;;;;;;;;;5098318;28;20239;-41
2023/09/26 02:33:01;;;;;;;2.70;2.50;;;;;;;;;;5106737;28;20207;-45
2023/09/26 02:35:28;;;;;;;3.63;3.33;;;;;;;;;;5092753;28;20770;-41
2023/09/26 02:37:56;;;;;;;4.53;2.90;;;;;;;;;;5093685;28;20208;-45
2023/09/26 02:40:23;;;;;;;3.40;2.97;;;;;;;;;;5092452;28;20224;-39
2023/09/26 02:42:50;;;;;;;3.00;2.63;;;;;;;;;;5098176;28;20204;-44
2023/09/26 02:45:18;;;;;;;3.23;2.93;;;;;;;;;;5109730;28;20308;-38
2023/09/26 02:47:45;;;;;;;2.20;2.10;;;;;;;;;;5091486;28;20208;-41
2023/09/26 02:50:14;;;;;;;2.97;2.63;;;;;;;;;;5097152;28;20228;-45
2023/09/26 02:52:42;;;;;;;2.73;2.50;;;;;;;;;;5108029;28;20211;-42
2023/09/26 02:55:10;;;;;;;2.60;1.93;;;;;;;;;;5098231;28;20209;-42
2023/09/26 02:57:37;;;;;;;2.13;1.97;;;;;;;;;;5103465;28;20212;-41
2023/09/26 03:00:14;;;;;;;2.57;2.30;;;;;;;;;;5098064;28;20221;-41
2023/09/26 03:02:41;;;;;;;2.30;2.10;;;;;;;;;;5115555;28;20206;-39
2023/09/26 03:05:09;;;;;;;3.00;2.77;;;;;;;;;;5107642;28;20232;-37
2023/09/26 03:07:38;;;;;;;3.13;2.63;;;;;;;;;;5103563;28;20216;-42
2023/09/26 03:10:05;;;;;;;3.17;2.70;;;;;;;;;;5096683;28;20227;-43
2023/09/26 03:12:32;;;;;;;2.63;2.43;;;;;;;;;;5099433;28;20209;-38
2023/09/26 03:14:59;;;;;;;1.87;1.73;;;;;;;;;;5103173;28;20262;-43
2023/09/26 03:17:26;;;;;;;2.27;2.10;;;;;;;;;;5105807;28;20200;-43
2023/09/26 03:19:53;;;;;;;3.73;2.43;;;;;;;;;;5106510;28;20221;-43
2023/09/26 03:22:21;;;;;;;2.20;2.10;;;;;;;;;;5103501;27;20201;-45
2023/09/26 03:24:49;;;;;;;2.30;2.20;;;;;;;;;;5094657;28;20219;-45
2023/09/26 03:27:16;;;;;;;3.30;2.10;;;;;;;;;;5098733;28;20200;-43
2023/09/26 03:29:51;;;;;;;2.10;1.97;;;;;;;;;;5108479;28;20231;-42
2023/09/26 03:32:18;;;;;;;2.70;2.10;;;;;;;;;;5103361;28;20205;-45
2023/09/26 03:34:45;;;;;;;2.30;2.10;;;;;;;;;;5101570;28;20208;-43
2023/09/26 03:37:12;;;;;;;2.20;2.10;;;;;;;;;;5097199;28;20207;-41
2023/09/26 03:39:39;;;;;;;2.07;1.93;;;;;;;;;;5094634;28;20223;-42
2023/09/26 03:42:08;;;;;;;2.80;2.60;;;;;;;;;;5100854;28;20205;-39
2023/09/26 03:44:38;;;;;;;2.60;2.03;;;;;;;;;;5097364;28;20204;-42
2023/09/26 03:47:05;;;;;;;2.70;2.50;;;;;;;;;;5106598;28;20203;-45
2023/09/26 03:49:32;;;;;;;2.47;2.27;;;;;;;;;;5093495;27;20229;-46
2023/09/26 03:52:00;;;;;;;3.80;2.60;;;;;;;;;;5102879;28;20196;-45
2023/09/26 03:54:27;;;;;;;2.80;2.60;;;;;;;;;;5103684;28;20490;-43
2023/09/26 03:56:54;;;;;;;2.77;2.47;;;;;;;;;;5097803;28;20206;-44
2023/09/26 03:59:22;;;;;;;2.60;2.40;;;;;;;;;;5102274;28;20581;-38
2023/09/26 04:01:49;;;;;;;2.47;2.37;;;;;;;;;;5114372;28;20209;-40
2023/09/26 04:04:17;;;;;;;1.90;1.80;;;;;;;;;;5103484;28;20704;-44
2023/09/26 04:06:44;;;;;;;3.13;2.00;;;;;;;;;;5103025;28;20203;-42
2023/09/26 04:09:12;;;;;;;2.17;1.97;;;;;;;;;;5104813;28;20231;-45
2023/09/26 04:11:39;;;;;;;2.50;2.30;;;;;;;;;;5104412;28;20232;-42
2023/09/26 04:14:06;;;;;;;2.60;2.40;;;;;;;;;;5112405;28;20202;-43
2023/09/26 04:16:35;;;;;;;2.30;2.10;;;;;;;;;;5096712;28;20211;-40
2023/09/26 04:19:02;;;;;;;3.37;2.60;;;;;;;;;;5099399;28;20210;-41
2023/09/26 04:21:29;;;;;;;5.83;3.23;;;;;;;;;;5094010;28;20219;-40
2023/09/26 04:23:59;;;;;;;3.60;2.30;;;;;;;;;;5101937;28;20200;-42
2023/09/26 04:26:27;;;;;;;3.00;2.80;;;;;;;;;;5093819;28;20457;-43
2023/09/26 04:28:54;;;;;;;4.27;3.07;;;;;;;;;;5107351;27;20211;-44
2023/09/26 04:31:21;;;;;;;7.60;4.07;;;;;;;;;;5093008;28;20222;-43
2023/09/26 04:33:50;;;;;;;3.13;2.83;;;;;;;;;;5093266;28;20209;-45
2023/09/26 04:36:17;;;;;;;2.90;2.60;;;;;;;;;;5099182;28;20200;-42
2023/09/26 04:38:45;;;;;;;3.13;2.50;;;;;;;;;;5092809;28;20292;-40
2023/09/26 04:41:13;;;;;;;4.90;2.80;;;;;;;;;;5094480;28;20257;-43
2023/09/26 04:43:40;;;;;;;2.53;2.33;;;;;;;;;;5101571;28;20254;-41
2023/09/26 04:46:11;;;;;;;2.77;2.57;;;;;;;;;;5100770;28;20206;-44
2023/09/26 04:48:39;;;;;;;3.53;2.30;;;;;;;;;;5101067;28;20201;-42
2023/09/26 04:51:08;;;;;;;2.50;2.30;;;;;;;;;;5090340;28;20227;-40
2023/09/26 04:53:35;;;;;;;3.70;2.97;;;;;;;;;;5104498;28;20204;-39
2023/09/26 04:56:03;;;;;;;2.70;2.50;;;;;;;;;;5090955;28;20215;-43
2023/09/26 04:58:30;;;;;;;3.10;2.80;;;;;;;;;;5100858;28;20200;-39
2023/09/26 05:00:58;;;;;;;4.33;2.60;;;;;;;;;;5108319;28;20250;-43
2023/09/26 05:03:25;;;;;;;2.00;1.90;;;;;;;;;;5101667;28;20215;-41
2023/09/26 05:05:52;;;;;;;2.53;2.33;;;;;;;;;;5094434;28;20204;-40
2023/09/26 05:08:21;;;;;;;2.33;2.13;;;;;;;;;;5101082;28;20310;-42
2023/09/26 05:10:49;;;;;;;3.10;2.60;;;;;;;;;;5098856;27;20221;-44
2023/09/26 05:13:17;;;;;;;3.20;2.90;;;;;;;;;;5100442;28;20201;-44
2023/09/26 05:15:44;;;;;;;3.37;2.20;;;;;;;;;;5092252;28;20253;-43
2023/09/26 05:18:11;;;;;;;4.70;2.60;;;;;;;;;;5092166;28;20204;-44
2023/09/26 05:20:38;;;;;;;2.73;2.53;;;;;;;;;;5092339;28;20218;-45
2023/09/26 05:23:05;;;;;;;2.50;2.30;;;;;;;;;;5108813;28;20454;-39
2023/09/26 05:25:35;;;;;;;2.80;2.40;;;;;;;;;;5101192;28;20287;-42
2023/09/26 05:28:03;;;;;;;1.90;1.80;;;;;;;;;;5106438;28;20211;-39
2023/09/26 05:30:30;;;;;;;2.70;2.50;;;;;;;;;;5104791;28;20230;-42
2023/09/26 05:32:57;;;;;;;2.40;2.20;;;;;;;;;;5106214;28;20286;-40
2023/09/26 05:35:25;;;;;;;2.50;2.30;;;;;;;;;;5110012;28;20226;-43
2023/09/26 05:37:52;;;;;;;2.37;2.23;;;;;;;;;;5103383;28;20295;-39
2023/09/26 05:40:19;;;;;;;2.77;2.57;;;;;;;;;;5091327;28;20694;-42
2023/09/26 05:42:47;;;;;;;2.63;2.43;;;;;;;;;;5099730;28;20211;-44
2023/09/26 05:45:16;;;;;;;5.13;2.17;;;;;;;;;;5097819;28;20206;-42
2023/09/26 05:47:44;;;;;;;2.23;1.93;;;;;;;;;;5097744;28;20704;-41
2023/09/26 05:50:11;;;;;;;2.17;2.07;;;;;;;;;;5092057;28;20224;-44
2023/09/26 05:52:39;;;;;;;2.43;2.30;;;;;;;;;;5090849;28;20209;-45
2023/09/26 05:55:06;;;;;;;2.33;2.20;;;;;;;;;;5094062;28;20236;-45
2023/09/26 05:57:34;;;;;;;2.33;2.23;;;;;;;;;;5096936;28;20263;-38
2023/09/26 06:00:04;;;;;;;2.73;2.53;;;;;;;;;;5106345;28;20306;-40
2023/09/26 06:02:31;;;;;;;5.23;2.57;;;;;;;;;;5109136;28;20210;-42
2023/09/26 06:04:58;;;;;;;3.40;2.80;;;;;;;;;;5098696;28;20200;-38
2023/09/26 06:07:27;;;;;;;2.17;2.07;;;;;;;;;;5110412;28;20210;-42
2023/09/26 06:09:54;;;;;;;2.80;2.60;;;;;;;;;;5100470;28;20224;-39
2023/09/26 06:12:21;;;;;;;2.47;2.27;;;;;;;;;;5101458;28;20290;-39
2023/09/26 06:14:48;;;;;;;2.37;2.17;;;;;;;;;;5107771;28;20200;-39
2023/09/26 06:17:17;;;;;;;2.33;2.13;;;;;;;;;;5092088;28;20209;-44
2023/09/26 06:19:46;;;;;;;2.80;2.60;;;;;;;;;;5091578;28;20489;-43
2023/09/26 06:22:14;;;;;;;2.47;2.30;;;;;;;;;;5106268;28;20200;-42
2023/09/26 06:24:41;;;;;;;2.73;2.37;;;;;;;;;;5099738;28;20655;-38
2023/09/26 06:27:08;;;;;;;3.07;2.87;;;;;;;;;;5098945;28;20196;-42
2023/09/26 06:29:39;;;;;;;2.40;2.20;;;;;;;;;;5095992;28;20220;-41
2023/09/26 06:32:06;;;;;;;3.10;2.80;;;;;;;;;;5104247;28;20208;-41
2023/09/26 06:34:35;;;;;;;4.13;2.83;;;;;;;;;;5103697;28;20218;-37
2023/09/26 06:37:03;;;;;;;3.83;3.33;;;;;;;;;;5101530;28;20226;-38
2023/09/26 06:39:31;;;;;;;3.30;2.37;;;;;;;;;;5114058;28;20229;-40
2023/09/26 06:41:58;;;;;;;5.07;2.97;;;;;;;;;;5100324;28;20203;-42
2023/09/26 06:44:25;;;;;;;3.10;2.77;;;;;;;;;;5103911;28;20213;-41
2023/09/26 06:46:52;;;;;;;5.20;2.80;;;;;;;;;;5108522;28;20204;-41
2023/09/26 06:49:19;;;;;;;2.40;2.10;;;;;;;;;;5104708;28;20304;-46
2023/09/26 06:51:50;;;;;;;3.60;3.30;;;;;;;;;;5098083;28;20313;-39
2023/09/26 06:54:17;;;;;;;2.97;2.70;;;;;;;;;;5098469;27;20192;-40
2023/09/26 06:56:44;;;;;;;3.43;3.13;;;;;;;;;;5095468;28;20292;-41
2023/09/26 06:59:11;;;;;;;3.00;2.80;;;;;;;;;;5109817;28;20205;-39
2023/09/26 07:01:39;;;;;;;4.00;3.30;;;;;;;;;;5094284;28;20204;-40
2023/09/26 07:04:13;;;;;;;3.83;3.20;;;;;;;;;;5097566;28;20203;-41
2023/09/26 07:06:41;;;;;;;4.53;3.93;;;;;;;;;;5107615;28;20352;-42
2023/09/26 07:09:12;;;;;;;3.93;3.53;;;;;;;;;;5101679;28;20207;-35
2023/09/26 07:11:40;;;;;;;4.20;3.50;;;;;;;;;;5105391;27;20232;-43
2023/09/26 07:14:08;;;;;;;3.57;3.27;;;;;;;;;;5103876;27;20212;-38
2023/09/26 07:16:35;;;;;;;8.07;3.47;;;;;;;;;;5106553;28;20212;-43
2023/09/26 07:19:03;;;;;;;2.80;2.60;;;;;;;;;;5104955;28;20214;-40
2023/09/26 07:21:30;;;;;;;5.63;3.70;;;;;;;;;;5106542;28;20201;-42
2023/09/26 07:23:59;;;;;;;4.90;3.87;;;;;;;;;;5097072;28;20211;-40
2023/09/26 07:26:29;;;;;;;4.57;3.90;;;;;;;;;;5093549;28;20255;-46
2023/09/26 07:28:56;;;;;;;3.83;3.43;;;;;;;;;;5104565;28;20287;-44
2023/09/26 07:31:23;;;;;;;4.43;4.03;;;;;;;;;;5114901;28;20220;-45
2023/09/26 07:33:51;;;;;;;4.87;3.90;;;;;;;;;;5102601;28;20280;-44
2023/09/26 07:36:18;;;;;;;4.23;3.70;;;;;;;;;;5096347;28;20205;-41
2023/09/26 07:38:45;;;;;;;5.80;5.20;;;;;;;;;;5105066;28;20204;-41
2023/09/26 07:41:12;;;;;;;6.17;4.37;;;;;;;;;;5105630;28;20319;-41
2023/09/26 07:43:41;;;;;;;5.37;4.87;;;;;;;;;;5106030;28;20259;-44
2023/09/26 07:46:09;;;;;;;6.37;5.57;;;;;;;;;;5114452;28;20280;-43
2023/09/26 07:48:36;;;;;;;6.33;5.37;;;;;;;;;;5105903;28;20208;-37
2023/09/26 07:51:03;;;;;;;7.03;6.33;;;;;;;;;;5106034;28;20665;-38
2023/09/26 07:53:30;;;;;;;6.27;5.67;;;;;;;;;;5108284;28;20204;-45
2023/09/26 07:55:58;;;;;;;9.13;6.30;;;;;;;;;;5100424;28;20193;-43
2023/09/26 07:58:25;;;;;;;7.93;6.23;;;;;;;;;;5108171;28;20215;-44
2023/09/26 08:00:58;;;;;;;9.40;6.40;;;;;;;;;;5103870;28;20226;-38
2023/09/26 08:03:25;;;;;;;9.30;7.63;;;;;;;;;;5105931;28;20222;-40
2023/09/26 08:05:59;;;;;;;7.77;6.97;;;;;;;;;;5102246;28;20197;-40
2023/09/26 08:08:26;;;;;;;9.90;8.10;;;;;;;;;;5102614;28;20223;-43
2023/09/26 08:10:53;;;;;;;9.03;7.97;;;;;;;;;;5098136;28;20312;-42
2023/09/26 08:13:20;;;;;;;7.87;7.10;;;;;;;;;;5101080;28;20197;-41
2023/09/26 08:15:48;;;;;;;9.13;7.33;;;;;;;;;;5101931;28;20196;-42
2023/09/26 08:18:16;;;;;;;10.83;8.47;;;;;;;;;;5093134;28;20211;-44
2023/09/26 08:20:44;;;;;;;8.57;7.67;;;;;;;;;;5105941;28;20314;-42
2023/09/26 08:23:11;;;;;;;9.87;7.80;;;;;;;;;;5092912;28;20195;-38
2023/09/26 08:25:38;;;;;;;10.60;9.40;;;;;;;;;;5089993;28;20214;-40
2023/09/26 08:28:06;;;;;;;10.40;8.03;;;;;;;;;;5096259;28;20208;-42
2023/09/26 08:30:33;;;;;;;8.70;7.77;;;;;;;;;;5093552;28;20524;-42
2023/09/26 08:33:00;;;;;;;6.03;5.43;;;;;;;;;;5105009;28;20220;-43
2023/09/26 08:35:29;;;;;;;8.50;7.60;;;;;;;;;;5104917;28;20239;-45
2023/09/26 08:37:56;;;;;;;6.00;5.27;;;;;;;;;;5096901;27;20204;-43
2023/09/26 08:40:25;;;;;;;7.60;6.83;;;;;;;;;;5107913;28;20224;-40
2023/09/26 08:42:52;;;;;;;8.97;7.97;;;;;;;;;;5097749;28;20203;-43
2023/09/26 08:45:20;;;;;;;8.53;7.27;;;;;;;;;;5114146;28;20204;-44
2023/09/26 08:47:48;;;;;;;8.60;7.43;;;;;;;;;;5093503;28;20562;-43
2023/09/26 08:50:15;;;;;;;11.30;8.17;;;;;;;;;;5093590;28;20236;-38
2023/09/26 08:52:44;;;;;;;10.30;8.03;;;;;;;;;;5101458;28;20229;-41
2023/09/26 08:55:12;;;;;;;10.80;9.30;;;;;;;;;;5091432;28;20283;-40
2023/09/26 08:57:40;;;;;;;8.93;7.40;;;;;;;;;;5094039;28;20655;-43
2023/09/26 09:00:10;;;;;;;9.33;8.37;;;;;;;;;;5100918;28;20216;-39
2023/09/26 09:02:37;;;;;;;9.07;7.87;;;;;;;;;;5092105;28;20200;-43
2023/09/26 09:05:04;;;;;;;7.73;6.93;;;;;;;;;;5098171;28;20210;-41
2023/09/26 09:07:32;;;;;;;10.93;7.03;;;;;;;;;;5099373;28;20208;-40
2023/09/26 09:10:07;;;;;;;8.40;7.07;;;;;;;;;;5099462;28;20217;-42
2023/09/26 09:12:37;;;;;;;8.70;7.10;;;;;;;;;;5110074;28;20213;-41
2023/09/26 09:15:06;;;;;;;7.53;6.33;;;;;;;;;;5104925;28;20211;-44
2023/09/26 09:17:41;;;;;;;8.07;6.77;;;;;;;;;;5111862;28;20218;-45
2023/09/26 09:20:09;;;;;;;8.17;6.90;;;;;;;;;;5095259;28;20227;-43
2023/09/26 09:22:36;;;;;;;7.83;6.77;;;;;;;;;;5093608;28;20208;-39
2023/09/26 09:25:03;;;;;;;7.80;6.60;;;;;;;;;;5101168;28;20279;-43
2023/09/26 09:27:33;;;;;;;6.10;5.50;;;;;;;;;;5096424;28;20205;-44
2023/09/26 09:30:03;;;;;;;8.90;6.00;;;;;;;;;;5092783;28;20309;-44
2023/09/26 09:32:30;;;;;;;6.50;5.63;;;;;;;;;;5109141;28;20219;-45
2023/09/26 09:34:58;;;;;;;7.00;6.23;;;;;;;;;;5096122;28;20208;-44
2023/09/26 09:37:25;;;;;;;5.93;5.03;;;;;;;;;;5103835;28;20291;-41
2023/09/26 09:39:52;;;;;;;6.80;5.80;;;;;;;;;;5101344;28;20228;-42
2023/09/26 09:42:19;;;;;;;6.53;5.00;;;;;;;;;;5099515;28;20634;-45
2023/09/26 09:44:48;;;;;;;11.90;5.53;;;;;;;;;;5097993;28;20203;-42
2023/09/26 09:47:18;;;;;;;7.00;5.63;;;;;;;;;;5104206;28;20200;-42
2023/09/26 09:49:48;;;;;;;7.67;5.40;;;;;;;;;;5089581;28;20238;-43
2023/09/26 09:52:18;;;;;;;6.23;5.70;;;;;;;;;;5100184;28;20455;-44
2023/09/26 09:54:46;;;;;;;6.67;5.77;;;;;;;;;;5095744;28;20204;-45
2023/09/26 09:57:15;;;;;;;5.93;5.33;;;;;;;;;;5098622;28;20200;-46
2023/09/26 09:59:43;;;;;;;5.07;4.57;;;;;;;;;;5103934;28;20232;-44
2023/09/26 10:02:15;;;;;;;9.23;4.07;;;;;;;;;;5100635;28;20203;-42
2023/09/26 10:04:42;;;;;;;5.03;4.53;;;;;;;;;;5097305;28;20208;-42
2023/09/26 10:07:10;;;;;;;4.23;3.83;;;;;;;;;;5102192;28;20196;-43
2023/09/26 10:09:38;;;;;;;6.17;4.20;;;;;;;;;;5096020;28;20224;-43
2023/09/26 10:12:06;;;;;;;4.83;4.20;;;;;;;;;;5103875;28;20228;-40
2023/09/26 10:14:33;;;;;;;4.80;4.27;;;;;;;;;;5104070;28;20206;-44
2023/09/26 10:17:02;;;;;;;6.30;4.37;;;;;;;;;;5107126;28;20268;-40
2023/09/26 10:19:31;;;;;;;4.23;3.53;;;;;;;;;;5104208;27;20266;-42
2023/09/26 10:22:13;;;;;;;3.40;3.10;;;;;;;;;;5095583;28;20205;-43
2023/09/26 10:24:46;;;;;;;6.43;3.33;;;;;;;;;;5104126;28;20231;-38
2023/09/26 10:27:13;;;;;;;4.63;4.23;;;;;;;;;;5090517;28;20234;-41
2023/09/26 10:29:41;;;;;;;12.70;8.63;;;;;;;;;;5104361;28;20228;-44
2023/09/26 10:32:10;;;;;;;19.13;9.83;;;;;;;;;;5107295;28;20300;-44
2023/09/26 10:34:39;;;;;;;6.67;4.37;;;;;;;;;;5098202;28;20220;-44
2023/09/26 10:37:08;;;;;;;4.20;2.90;;;;;;;;;;5102188;28;20295;-42
2023/09/26 10:39:36;;;;;;;3.27;2.80;;;;;;;;;;5101724;28;20227;-46
2023/09/26 10:42:09;;;;;;;3.27;2.97;;;;;;;;;;5101026;28;20621;-42
2023/09/26 10:44:37;;;;;;;3.27;2.83;;;;;;;;;;5097080;28;20196;-41
2023/09/26 10:47:07;;;;;;;2.90;2.70;;;;;;;;;;5094189;28;20268;-40
2023/09/26 10:49:34;;;;;;;2.70;2.30;;;;;;;;;;5098026;28;20223;-44
2023/09/26 10:52:03;;;;;;;2.53;2.00;;;;;;;;;;5096094;28;20343;-43
2023/09/26 10:54:32;;;;;;;2.70;2.50;;;;;;;;;;5103322;28;20201;-42
2023/09/26 10:57:00;;;;;;;3.27;2.13;;;;;;;;;;5094193;28;20294;-44
2023/09/26 10:59:28;;;;;;;2.30;2.10;;;;;;;;;;5096750;28;20272;-39
2023/09/26 11:01:56;;;;;;;5.20;2.50;;;;;;;;;;5102072;28;20196;-45
2023/09/26 11:04:24;;;;;;;2.20;2.00;;;;;;;;;;5103823;28;20203;-46
2023/09/26 11:06:52;;;;;;;2.57;1.80;;;;;;;;;;5104612;27;20197;-41
2023/09/26 11:09:20;;;;;;;2.20;1.87;;;;;;;;;;5101363;28;20314;-41
2023/09/26 11:11:47;;;;;;;2.50;2.10;;;;;;;;;;5097148;28;20214;-42
2023/09/26 11:14:15;;;;;;;2.97;2.67;;;;;;;;;;5098340;28;20200;-42
2023/09/26 11:16:43;;;;;;;3.50;2.80;;;;;;;;;;5097899;28;20210;-42
2023/09/26 11:19:10;;;;;;;3.37;3.07;;;;;;;;;;5106743;28;20200;-43
2023/09/26 11:21:37;;;;;;;2.80;2.50;;;;;;;;;;5102503;28;20209;-43
2023/09/26 11:24:18;;;;;;;3.57;2.57;;;;;;;;;;5102678;28;20294;-44
2023/09/26 11:26:49;;;;;;;2.30;2.20;;;;;;;;;;5099232;28;20204;-42
2023/09/26 11:29:17;;;;;;;2.60;2.37;;;;;;;;;;5100393;28;20220;-39
2023/09/26 11:31:45;;;;;;;2.53;2.13;;;;;;;;;;5103113;28;20215;-43
2023/09/26 11:34:12;;;;;;;3.97;2.30;;;;;;;;;;5105879;28;20224;-46
2023/09/26 11:36:40;;;;;;;3.67;1.90;;;;;;;;;;5099163;28;20309;-43
2023/09/26 11:39:08;;;;;;;2.40;2.20;;;;;;;;;;5094647;28;20204;-45
2023/09/26 11:41:35;;;;;;;2.23;2.13;;;;;;;;;;5101813;27;20240;-43
2023/09/26 11:44:10;;;;;;;3.77;2.30;;;;;;;;;;5101121;28;20201;-43
2023/09/26 11:46:46;;;;;;;5.33;2.20;;;;;;;;;;5100288;28;20221;-40
2023/09/26 11:49:13;;;;;;;3.30;2.20;;;;;;;;;;5100211;28;20697;-42
2023/09/26 11:51:40;;;;;;;2.43;2.23;;;;;;;;;;5097772;28;20208;-43
2023/09/26 11:54:08;;;;;;;2.93;2.00;;;;;;;;;;5101156;28;20215;-44
2023/09/26 11:56:36;;;;;;;2.10;2.00;;;;;;;;;;5097319;28;20208;-43
2023/09/26 11:59:05;;;;;;;4.80;2.10;;;;;;;;;;5106990;28;20208;-42
2023/09/26 12:01:33;;;;;;;2.17;1.90;;;;;;;;;;5111322;28;20217;-44
2023/09/26 12:04:07;;;;;;;2.33;2.00;;;;;;;;;;5101115;28;20200;-40
2023/09/26 12:06:34;;;;;;;1.70;1.60;;;;;;;;;;5101191;28;20239;-46
2023/09/26 12:09:03;;;;;;;2.10;2.00;;;;;;;;;;5102112;28;20213;-40
2023/09/26 12:11:31;;;;;;;3.33;1.83;;;;;;;;;;5095186;28;20219;-40
2023/09/26 12:13:58;;;;;;;3.37;2.13;;;;;;;;;;5100820;28;20267;-40
2023/09/26 12:16:27;;;;;;;1.97;1.83;;;;;;;;;;5092899;28;20652;-42
2023/09/26 12:18:55;;;;;;;1.90;1.80;;;;;;;;;;5101267;28;20209;-43
2023/09/26 12:21:23;;;;;;;1.80;1.70;;;;;;;;;;5098797;28;20200;-45
2023/09/26 12:23:50;;;;;;;2.50;1.90;;;;;;;;;;5104182;27;20201;-46
2023/09/26 12:26:17;;;;;;;2.03;1.50;;;;;;;;;;5102071;28;20407;-41
2023/09/26 12:28:44;;;;;;;2.53;1.70;;;;;;;;;;5103397;28;20216;-46
2023/09/26 12:31:12;;;;;;;1.83;1.73;;;;;;;;;;5104885;28;20229;-45
2023/09/26 12:33:39;;;;;;;1.80;1.70;;;;;;;;;;5111682;28;20345;-45
2023/09/26 12:36:07;;;;;;;2.03;1.70;;;;;;;;;;5102873;28;20213;-46
2023/09/26 12:38:34;;;;;;;2.73;1.90;;;;;;;;;;5099882;28;20214;-43
2023/09/26 12:41:02;;;;;;;1.90;1.77;;;;;;;;;;5093251;28;20220;-44
2023/09/26 12:43:29;;;;;;;1.57;1.47;;;;;;;;;;5105767;28;20208;-42
2023/09/26 12:45:57;;;;;;;2.03;1.93;;;;;;;;;;5104558;28;20210;-42
2023/09/26 12:48:24;;;;;;;2.27;1.60;;;;;;;;;;5096525;28;20205;-42
2023/09/26 12:50:51;;;;;;;1.70;1.60;;;;;;;;;;5093100;28;20988;-45
2023/09/26 12:53:20;;;;;;;1.60;1.50;;;;;;;;;;5104083;28;20226;-44
2023/09/26 12:55:51;;;;;;;3.43;2.30;;;;;;;;;;5104392;28;20201;-44
2023/09/26 12:58:18;;;;;;;2.30;1.80;;;;;;;;;;5102560;28;20211;-42
2023/09/26 13:00:45;;;;;;;1.90;1.80;;;;;;;;;;5106325;28;20731;-43
2023/09/26 13:03:12;;;;;;;3.37;2.03;;;;;;;;;;5098993;28;20297;-40
2023/09/26 13:05:39;;;;;;;4.43;1.83;;;;;;;;;;5101926;28;20216;-42
2023/09/26 13:08:07;;;;;;;1.77;1.60;;;;;;;;;;5094679;28;20205;-41
2023/09/26 13:10:36;;;;;;;1.70;1.60;;;;;;;;;;5097270;28;20284;-45
2023/09/26 13:13:04;;;;;;;1.73;1.60;;;;;;;;;;5107233;28;20460;-44
2023/09/26 13:15:31;;;;;;;3.47;2.13;;;;;;;;;;5101909;28;20249;-44
2023/09/26 13:18:05;;;;;;;2.13;1.60;;;;;;;;;;5107389;28;20215;-41
2023/09/26 13:20:32;;;;;;;1.87;1.67;;;;;;;;;;5105772;28;20234;-46
2023/09/26 13:22:59;;;;;;;2.33;1.40;;;;;;;;;;5098966;28;20204;-41
2023/09/26 13:25:26;;;;;;;1.47;1.40;;;;;;;;;;5092844;28;20227;-44
2023/09/26 13:27:55;;;;;;;2.63;1.50;;;;;;;;;;5102371;28;20204;-42
2023/09/26 13:30:22;;;;;;;1.90;1.80;;;;;;;;;;5100412;28;20224;-43
2023/09/26 13:32:49;;;;;;;2.17;1.53;;;;;;;;;;5101269;28;20309;-42
2023/09/26 13:35:16;;;;;;;1.73;1.50;;;;;;;;;;5094987;28;20210;-45
2023/09/26 13:37:47;;;;;;;1.67;1.57;;;;;;;;;;5094509;28;20225;-42
2023/09/26 13:40:14;;;;;;;1.70;1.50;;;;;;;;;;5088522;28;20267;-45
2023/09/26 13:42:41;;;;;;;2.33;1.40;;;;;;;;;;5101726;28;20273;-40
2023/09/26 13:45:10;;;;;;;2.30;1.60;;;;;;;;;;5098727;28;20293;-41
2023/09/26 13:47:37;;;;;;;1.30;1.20;;;;;;;;;;5099301;28;20207;-43
2023/09/26 13:50:05;;;;;;;3.93;1.57;;;;;;;;;;5100144;28;20312;-45
2023/09/26 13:52:32;;;;;;;1.73;1.50;;;;;;;;;;5099165;28;20248;-42
2023/09/26 13:54:59;;;;;;;1.40;1.30;;;;;;;;;;5095326;28;20214;-41
2023/09/26 13:57:26;;;;;;;1.93;1.53;;;;;;;;;;5100854;28;20255;-44
2023/09/26 13:59:53;;;;;;;1.00;1.00;;;;;;;;;;5099602;28;20237;-44
2023/09/26 14:02:22;;;;;;;1.07;1.00;;;;;;;;;;5097995;28;20310;-41
2023/09/26 14:04:49;;;;;;;1.23;1.17;;;;;;;;;;5098528;28;20210;-44
2023/09/26 14:07:17;;;;;;;1.10;1.10;;;;;;;;;;5097373;28;20212;-41
2023/09/26 14:09:44;;;;;;;1.47;1.20;;;;;;;;;;5104278;28;20224;-45
2023/09/26 14:12:11;;;;;;;1.10;1.10;;;;;;;;;;5092736;28;20301;-41
2023/09/26 14:14:39;;;;;;;1.37;1.10;;;;;;;;;;5094182;28;20241;-40
2023/09/26 14:17:06;;;;;;;1.43;1.10;;;;;;;;;;5105452;28;20381;-43
2023/09/26 14:19:35;;;;;;;1.17;1.10;;;;;;;;;;5100421;28;20620;-42
2023/09/26 14:22:02;;;;;;;1.97;1.10;;;;;;;;;;5097318;28;20214;-45
2023/09/26 14:24:30;;;;;;;1.30;1.20;;;;;;;;;;5098078;28;20209;-40
2023/09/26 14:26:57;;;;;;;1.07;1.00;;;;;;;;;;5097722;28;20199;-44
2023/09/26 14:29:27;;;;;;;1.90;1.20;;;;;;;;;;5104706;28;20299;-42
2023/09/26 14:31:54;;;;;;;2.20;1.23;;;;;;;;;;5097222;28;20221;-45
2023/09/26 14:34:21;;;;;;;1.27;1.17;;;;;;;;;;5100180;28;20219;-41
2023/09/26 14:36:50;;;;;;;2.70;1.20;;;;;;;;;;5099591;28;20214;-40
2023/09/26 14:39:19;;;;;;;1.00;1.00;;;;;;;;;;5096935;28;20223;-42
2023/09/26 14:41:46;;;;;;;1.17;1.13;;;;;;;;;;5100184;28;20210;-40
2023/09/26 14:44:14;;;;;;;1.40;1.17;;;;;;;;;;5101709;28;20266;-45
2023/09/26 14:46:41;;;;;;;3.03;1.27;;;;;;;;;;5102996;28;20202;-43